Time;durP1;ratioP1;P1;durP2;ratioP2;P2;SDS_P1;SDS_P2;PMS_P1;PMS_P2;Temp;Humidity;BMP_temperature;BMP_pressure;BME280_temperature;BME280_humidity;BME280_pressure;Samples;Min_cycle;Max_cycle;Signal;HPM_P1;HPM_P2
2023/08/16 00:01:14;;;;;;;4.75;2.60;;;12.70;88.20;;;;;;5053330;28;20040;-79
2023/08/16 00:03:42;;;;;;;3.92;2.30;;;12.70;88.20;;;;;;5053175;28;20021;-79
2023/08/16 00:06:11;;;;;;;7.80;2.75;;;12.70;87.90;;;;;;5053222;28;20082;-79
2023/08/16 00:08:39;;;;;;;4.28;2.25;;;12.70;87.90;;;;;;5053040;28;20384;-79
2023/08/16 00:11:07;;;;;;;6.55;2.70;;;12.90;88.30;;;;;;5053198;28;20387;-79
2023/08/16 00:13:35;;;;;;;6.05;2.50;;;13.00;88.20;;;;;;5053092;28;20021;-79
2023/08/16 00:16:03;;;;;;;5.95;2.17;;;13.00;87.50;;;;;;5053124;28;20407;-79
2023/08/16 00:18:31;;;;;;;7.35;2.33;;;13.10;88.10;;;;;;5052879;28;20045;-79
2023/08/16 00:21:00;;;;;;;4.20;2.60;;;13.20;87.80;;;;;;5053155;28;20021;-78
2023/08/16 00:23:27;;;;;;;4.05;1.88;;;13.30;88.20;;;;;;5053079;28;20475;-78
2023/08/16 00:25:56;;;;;;;3.22;1.55;;;13.50;87.70;;;;;;5052646;28;20021;-78
2023/08/16 00:28:24;;;;;;;4.13;1.80;;;13.70;87.30;;;;;;5053031;28;20017;-78
2023/08/16 00:30:54;;;;;;;3.97;1.80;;;13.70;86.80;;;;;;5052804;28;20039;-79
2023/08/16 00:33:22;;;;;;;6.70;1.70;;;13.80;87.50;;;;;;5052814;28;20029;-79
2023/08/16 00:35:52;;;;;;;2.17;1.50;;;14.20;87.00;;;;;;5052587;28;20040;-79
2023/08/16 00:38:20;;;;;;;4.72;1.45;;;14.30;86.00;;;;;;5052948;28;20078;-79
2023/08/16 00:40:51;;;;;;;1.65;0.98;;;14.40;85.20;;;;;;5052605;28;20027;-79
2023/08/16 00:43:19;;;;;;;4.93;1.10;;;14.50;85.20;;;;;;5052847;28;20032;-78
2023/08/16 00:45:49;;;;;;;1.45;1.10;;;14.80;84.70;;;;;;5052523;28;20028;-79
2023/08/16 00:48:18;;;;;;;2.50;1.20;;;14.90;84.20;;;;;;5052731;28;20103;-79
2023/08/16 00:50:49;;;;;;;3.70;1.27;;;15.10;83.70;;;;;;5052777;28;20098;-79
2023/08/16 00:53:18;;;;;;;2.53;1.20;;;15.20;83.80;;;;;;5052701;28;20471;-80
2023/08/16 00:55:46;;;;;;;2.90;1.02;;;15.20;83.30;;;;;;5052344;28;20468;-79
2023/08/16 00:58:15;;;;;;;1.75;0.93;;;15.20;82.50;;;;;;5052463;28;20028;-80
2023/08/16 01:00:42;;;;;;;2.80;0.90;;;15.20;82.10;;;;;;5052540;28;20043;-79
2023/08/16 01:03:10;;;;;;;2.53;0.90;;;15.50;82.30;;;;;;5052636;28;20383;-78
2023/08/16 01:05:38;;;;;;;1.63;0.80;;;15.90;81.50;;;;;;5052366;28;20530;-78
2023/08/16 01:08:06;;;;;;;2.30;1.02;;;16.20;80.10;;;;;;5052629;28;20460;-79
2023/08/16 01:11:29;;;;;;;2.05;1.10;;;16.40;79.20;;;;;;5052485;28;20028;-79
2023/08/16 01:14:05;;;;;;;2.42;1.10;;;16.60;78.20;;;;;;5050359;28;20024;-79
2023/08/16 01:16:32;;;;;;;;;;;16.70;76.40;;;;;;5050450;28;20040;-79
2023/08/16 01:19:01;;;;;;;2.03;0.80;;;16.70;75.90;;;;;;5054006;28;20248;-79
2023/08/16 01:21:31;;;;;;;2.45;1.00;;;16.90;76.00;;;;;;5056409;28;20032;-79
2023/08/16 01:24:26;;;;;;;4.45;1.30;;;17.00;75.10;;;;;;5056412;28;20017;-80
2023/08/16 01:26:55;;;;;;;2.22;1.10;;;16.90;74.40;;;;;;5056329;28;20025;-79
2023/08/16 01:29:24;;;;;;;3.40;0.90;;;16.80;74.70;;;;;;5056954;28;20036;-80
2023/08/16 01:31:51;;;;;;;1.63;0.77;;;16.80;74.20;;;;;;5055954;28;20033;-79
2023/08/16 01:34:18;;;;;;;2.03;1.10;;;16.80;74.30;;;;;;5056270;28;20025;-78
2023/08/16 01:36:46;;;;;;;7.20;1.67;;;16.80;73.40;;;;;;5056140;28;20033;-79
2023/08/16 01:39:13;;;;;;;3.25;1.10;;;16.80;73.60;;;;;;5055956;28;20041;-79
2023/08/16 01:41:41;;;;;;;2.53;0.90;;;16.80;73.70;;;;;;5055875;28;20433;-78
2023/08/16 01:44:10;;;;;;;1.98;1.00;;;16.90;74.10;;;;;;5056024;28;20031;-79
2023/08/16 01:46:40;;;;;;;1.90;1.30;;;16.90;73.50;;;;;;5055766;28;20491;-79
2023/08/16 01:49:09;;;;;;;2.72;1.20;;;16.80;74.00;;;;;;5055969;28;20074;-80
2023/08/16 01:51:37;;;;;;;4.03;1.20;;;16.90;73.30;;;;;;5055606;28;20029;-78
2023/08/16 01:54:05;;;;;;;3.50;1.00;;;16.90;73.30;;;;;;5055629;28;20086;-78
2023/08/16 01:56:32;;;;;;;1.52;0.73;;;16.90;73.40;;;;;;5055583;28;20134;-80
2023/08/16 01:58:59;;;;;;;2.40;0.77;;;16.90;73.80;;;;;;5055692;28;20025;-79
2023/08/16 02:01:27;;;;;;;2.08;0.80;;;16.90;73.20;;;;;;5055664;28;20426;-79
2023/08/16 02:03:54;;;;;;;1.58;0.80;;;16.90;72.50;;;;;;5055461;28;20384;-79
2023/08/16 02:06:22;;;;;;;0.95;0.60;;;16.80;72.70;;;;;;5055737;28;20048;-79
2023/08/16 02:08:51;;;;;;;1.52;0.73;;;16.80;71.90;;;;;;5055516;28;20082;-79
2023/08/16 02:11:20;;;;;;;3.13;0.82;;;16.80;71.20;;;;;;5055416;28;20079;-79
2023/08/16 02:13:48;;;;;;;1.13;0.80;;;16.70;71.90;;;;;;5055513;28;20021;-78
2023/08/16 02:16:15;;;;;;;1.15;0.73;;;16.70;72.40;;;;;;5055410;28;20486;-79
2023/08/16 02:18:42;;;;;;;0.80;0.80;;;16.70;73.00;;;;;;5055237;28;20127;-79
2023/08/16 02:21:10;;;;;;;5.43;0.70;;;16.70;73.30;;;;;;5055306;28;20051;-79
2023/08/16 02:23:37;;;;;;;1.73;0.60;;;16.70;73.70;;;;;;5055218;28;20020;-79
2023/08/16 02:26:04;;;;;;;1.38;0.63;;;16.60;73.30;;;;;;5055335;28;20487;-78
2023/08/16 02:28:32;;;;;;;2.90;1.00;;;16.60;73.40;;;;;;5055170;28;20025;-80
2023/08/16 02:31:07;;;;;;;2.67;0.80;;;16.60;73.40;;;;;;5054186;28;20154;-79
2023/08/16 02:33:35;;;;;;;1.40;0.80;;;16.50;73.70;;;;;;5055082;28;20375;-79
2023/08/16 02:36:04;;;;;;;1.25;0.60;;;16.40;73.50;;;;;;5054981;28;20072;-79
2023/08/16 02:38:31;;;;;;;0.98;0.60;;;16.50;74.00;;;;;;5055116;28;20025;-79
2023/08/16 02:40:58;;;;;;;0.93;0.70;;;16.40;73.90;;;;;;5054293;28;20111;-79
2023/08/16 02:43:26;;;;;;;2.15;0.90;;;16.50;74.10;;;;;;5054390;28;20353;-78
2023/08/16 02:45:54;;;;;;;1.20;0.80;;;16.50;74.20;;;;;;5054230;28;20363;-79
2023/08/16 02:48:21;;;;;;;2.20;1.00;;;16.50;74.40;;;;;;5054392;28;20021;-78
2023/08/16 02:50:49;;;;;;;3.63;1.42;;;16.60;74.40;;;;;;5054250;28;20029;-79
2023/08/16 02:53:17;;;;;;;2.58;1.52;;;16.60;74.30;;;;;;5054305;28;20020;-79
2023/08/16 02:55:44;;;;;;;1.95;1.30;;;16.60;73.70;;;;;;5051142;28;20056;-79
2023/08/16 02:58:11;;;;;;;1.50;0.90;;;16.60;73.80;;;;;;5054176;28;20021;-80
2023/08/16 03:00:39;;;;;;;1.98;0.90;;;16.70;73.90;;;;;;5054075;28;20361;-80
2023/08/16 03:03:07;;;;;;;2.55;1.30;;;16.80;73.70;;;;;;5054149;28;20490;-79
2023/08/16 03:05:34;;;;;;;2.10;0.98;;;16.80;73.50;;;;;;5053946;28;20450;-80
2023/08/16 03:08:03;;;;;;;2.42;0.90;;;16.80;73.40;;;;;;5054339;28;20017;-79
2023/08/16 03:10:30;;;;;;;4.38;1.42;;;16.80;72.70;;;;;;5054199;28;20036;-80
2023/08/16 03:12:58;;;;;;;1.80;1.20;;;16.90;72.90;;;;;;5053559;28;20475;-78
2023/08/16 03:15:25;;;;;;;2.47;1.10;;;17.10;72.30;;;;;;5054164;28;20124;-81
2023/08/16 03:17:52;;;;;;;1.80;1.13;;;17.10;71.60;;;;;;5053580;28;20403;-80
2023/08/16 03:20:19;;;;;;;2.92;0.90;;;17.20;71.50;;;;;;5054082;28;20065;-79
2023/08/16 03:22:47;;;;;;;4.43;0.90;;;17.20;71.70;;;;;;5054343;28;20021;-80
2023/08/16 03:25:14;;;;;;;3.60;0.80;;;17.30;71.50;;;;;;5054125;28;20024;-79
2023/08/16 03:27:42;;;;;;;1.88;0.90;;;17.20;70.30;;;;;;5053787;28;20471;-79
2023/08/16 03:30:10;;;;;;;2.75;0.80;;;17.20;70.10;;;;;;5053078;28;20021;-79
2023/08/16 03:32:37;;;;;;;2.40;1.00;;;17.30;70.30;;;;;;5052211;28;20487;-79
2023/08/16 03:35:05;;;;;;;2.28;0.90;;;17.30;69.80;;;;;;5053046;28;20044;-78
2023/08/16 03:37:33;;;;;;;1.30;0.90;;;17.30;69.60;;;;;;5053015;28;20102;-78
2023/08/16 03:40:00;;;;;;;1.15;0.70;;;17.30;69.40;;;;;;5053211;28;20039;-80
2023/08/16 03:42:28;;;;;;;2.58;0.98;;;17.40;69.30;;;;;;5053138;28;20471;-80
2023/08/16 03:44:55;;;;;;;2.08;0.70;;;17.40;69.30;;;;;;5053815;28;20456;-79
2023/08/16 03:47:23;;;;;;;1.92;0.82;;;17.50;69.30;;;;;;5053797;28;20387;-80
2023/08/16 03:49:50;;;;;;;2.42;0.60;;;17.50;68.90;;;;;;5053392;28;20387;-79
2023/08/16 03:52:18;;;;;;;2.40;0.75;;;17.70;68.00;;;;;;5053430;28;20024;-80
2023/08/16 03:54:45;;;;;;;1.23;0.60;;;17.70;67.10;;;;;;5052919;28;20052;-81
2023/08/16 03:57:12;;;;;;;3.63;0.70;;;17.70;67.50;;;;;;5053139;28;20032;-80
2023/08/16 03:59:40;;;;;;;2.88;0.88;;;17.70;67.30;;;;;;5053101;28;20051;-80
2023/08/16 04:02:07;;;;;;;2.03;1.00;;;17.70;67.80;;;;;;5053564;28;20574;-79
2023/08/16 04:04:34;;;;;;;1.23;0.63;;;17.70;66.70;;;;;;5053236;28;20071;-79
2023/08/16 04:07:02;;;;;;;2.22;0.70;;;17.70;67.30;;;;;;5053238;28;20108;-82
2023/08/16 04:09:29;;;;;;;4.88;0.90;;;17.80;66.90;;;;;;5052703;28;20403;-78
2023/08/16 04:11:57;;;;;;;2.78;0.65;;;17.80;66.00;;;;;;5052805;28;20024;-80
2023/08/16 04:14:24;;;;;;;1.30;0.70;;;17.80;66.50;;;;;;5052437;28;20024;-80
2023/08/16 04:16:51;;;;;;;3.05;0.85;;;17.80;67.20;;;;;;5052472;28;20032;-79
2023/08/16 04:19:19;;;;;;;0.77;0.70;;;17.90;67.30;;;;;;5052405;28;20103;-79
2023/08/16 04:21:46;;;;;;;4.20;1.48;;;17.90;67.50;;;;;;5052399;28;20383;-79
2023/08/16 04:24:14;;;;;;;4.20;0.95;;;17.90;67.80;;;;;;5052584;28;20035;-81
2023/08/16 04:26:43;;;;;;;2.03;0.90;;;17.90;67.20;;;;;;5052649;28;20033;-79
2023/08/16 04:29:11;;;;;;;1.92;0.65;;;18.00;66.90;;;;;;5052532;28;20422;-79
2023/08/16 04:31:38;;;;;;;3.72;0.80;;;18.00;67.00;;;;;;5052414;28;20025;-78
2023/08/16 04:34:07;;;;;;;0.80;0.50;;;18.00;66.80;;;;;;5052939;28;20082;-79
2023/08/16 04:36:34;;;;;;;2.38;1.17;;;18.00;66.60;;;;;;5053667;28;20028;-82
2023/08/16 04:39:02;;;;;;;1.45;0.52;;;18.00;66.70;;;;;;5054611;28;20017;-80
2023/08/16 04:41:29;;;;;;;0.73;0.55;;;18.00;66.50;;;;;;5062828;28;20527;-80
2023/08/16 04:43:57;;;;;;;3.08;0.52;;;18.00;66.60;;;;;;5055247;28;20029;-80
2023/08/16 04:46:24;;;;;;;1.55;0.60;;;18.00;66.80;;;;;;5061259;28;20027;-79
2023/08/16 04:48:53;;;;;;;1.55;0.52;;;17.90;66.40;;;;;;5051979;28;20029;-80
2023/08/16 04:51:20;;;;;;;1.65;0.30;;;17.90;65.00;;;;;;5060966;28;20202;-80
2023/08/16 04:53:48;;;;;;;0.95;0.40;;;17.80;65.10;;;;;;5050073;28;20054;-79
2023/08/16 04:56:15;;;;;;;1.60;0.40;;;17.70;65.70;;;;;;5054606;28;20036;-80
2023/08/16 04:58:42;;;;;;;1.75;0.50;;;17.70;66.10;;;;;;5058377;28;20032;-79
2023/08/16 05:01:10;;;;;;;0.63;0.30;;;17.60;66.40;;;;;;5057902;28;21125;-79
2023/08/16 05:03:38;;;;;;;1.20;0.50;;;17.50;66.40;;;;;;5056048;28;20013;-79
2023/08/16 05:06:05;;;;;;;0.63;0.60;;;17.50;66.70;;;;;;5050316;28;20738;-78
2023/08/16 05:08:33;;;;;;;0.85;0.50;;;17.40;66.50;;;;;;5049287;28;20025;-79
2023/08/16 05:11:00;;;;;;;1.95;0.68;;;17.30;67.20;;;;;;5041640;28;20438;-79
2023/08/16 05:13:27;;;;;;;0.80;0.40;;;17.30;66.10;;;;;;5051212;28;20388;-78
2023/08/16 05:15:55;;;;;;;1.15;0.60;;;17.20;66.80;;;;;;5048673;28;20476;-79
2023/08/16 05:18:22;;;;;;;1.00;0.55;;;17.20;67.00;;;;;;5046803;28;20040;-81
2023/08/16 05:20:49;;;;;;;1.38;0.50;;;17.10;67.50;;;;;;5051393;28;20380;-78
2023/08/16 05:23:17;;;;;;;2.25;0.60;;;17.10;67.90;;;;;;5051834;28;20024;-78
2023/08/16 05:25:44;;;;;;;1.13;0.52;;;17.10;68.30;;;;;;5051914;28;20033;-78
2023/08/16 05:28:12;;;;;;;0.77;0.40;;;17.10;68.70;;;;;;5052392;28;20021;-78
2023/08/16 05:30:39;;;;;;;0.52;0.38;;;17.20;69.00;;;;;;5052363;28;20044;-79
2023/08/16 05:33:07;;;;;;;1.00;0.43;;;17.10;68.80;;;;;;5052282;28;20032;-78
2023/08/16 05:35:35;;;;;;;1.30;0.50;;;17.20;68.90;;;;;;5051874;28;20079;-78
2023/08/16 05:38:04;;;;;;;1.05;0.47;;;17.20;67.80;;;;;;5052055;28;20032;-79
2023/08/16 05:40:32;;;;;;;0.85;0.65;;;17.10;67.90;;;;;;5052235;28;20033;-79
2023/08/16 05:42:59;;;;;;;1.98;0.52;;;17.10;68.40;;;;;;5052178;28;20475;-79
2023/08/16 05:45:28;;;;;;;2.63;0.60;;;17.10;68.40;;;;;;5052217;28;20078;-78
2023/08/16 05:47:56;;;;;;;1.95;0.40;;;17.00;68.40;;;;;;5052247;28;20449;-78
2023/08/16 05:50:24;;;;;;;2.63;0.50;;;17.00;68.60;;;;;;5051908;28;20025;-80
2023/08/16 05:52:51;;;;;;;0.73;0.60;;;17.00;69.20;;;;;;5052072;28;20021;-78
2023/08/16 05:55:18;;;;;;;1.00;0.40;;;17.00;68.90;;;;;;5051851;28;20486;-78
2023/08/16 05:57:46;;;;;;;0.90;0.50;;;17.00;69.00;;;;;;5051922;28;20021;-79
2023/08/16 06:00:13;;;;;;;2.28;0.47;;;17.00;68.50;;;;;;5052081;28;20167;-79
2023/08/16 06:02:41;;;;;;;0.20;0.20;;;17.00;68.20;;;;;;5057728;28;20074;-78
2023/08/16 06:05:09;;;;;;;0.52;0.38;;;16.90;68.20;;;;;;5056144;28;20702;-79
2023/08/16 06:07:37;;;;;;;4.57;0.75;;;16.90;68.60;;;;;;5068232;28;20009;-78
2023/08/16 06:10:06;;;;;;;0.55;0.50;;;16.90;68.70;;;;;;5059654;28;20360;-78
2023/08/16 06:12:33;;;;;;;0.73;0.40;;;16.80;68.40;;;;;;5060685;28;20029;-79
2023/08/16 06:15:00;;;;;;;0.70;0.30;;;16.80;68.10;;;;;;5056067;28;20503;-78
2023/08/16 06:17:28;;;;;;;1.10;0.43;;;16.80;68.30;;;;;;5069558;28;20375;-78
2023/08/16 06:19:56;;;;;;;0.75;0.40;;;16.70;68.60;;;;;;5063442;28;20123;-79
2023/08/16 06:22:23;;;;;;;0.73;0.50;;;16.70;68.80;;;;;;5075159;28;20171;-82
2023/08/16 06:24:52;;;;;;;2.38;0.50;;;16.60;68.60;;;;;;5075037;28;20046;-80
2023/08/16 06:27:20;;;;;;;1.35;0.50;;;16.60;68.70;;;;;;5073997;28;20363;-79
2023/08/16 06:29:47;;;;;;;1.80;0.60;;;16.50;68.50;;;;;;5073502;28;20628;-80
2023/08/16 06:32:15;;;;;;;1.40;0.50;;;16.50;68.50;;;;;;5072186;28;20467;-78
2023/08/16 06:34:42;;;;;;;1.13;0.40;;;16.50;69.00;;;;;;5054888;28;20112;-79
2023/08/16 06:37:09;;;;;;;1.38;0.50;;;16.40;69.40;;;;;;5055119;28;20025;-78
2023/08/16 06:39:38;;;;;;;1.73;0.63;;;16.40;69.40;;;;;;5054803;28;20024;-78
2023/08/16 06:42:06;;;;;;;2.20;0.70;;;16.30;69.50;;;;;;5054868;28;20025;-79
2023/08/16 06:44:33;;;;;;;1.00;0.52;;;16.30;69.70;;;;;;5054949;28;20483;-78
2023/08/16 06:47:00;;;;;;;2.28;0.68;;;16.20;70.10;;;;;;5054815;28;20434;-78
2023/08/16 06:49:28;;;;;;;1.20;0.43;;;16.20;70.00;;;;;;5054940;28;20082;-81
2023/08/16 06:51:55;;;;;;;0.60;0.30;;;16.20;70.00;;;;;;5054584;28;20025;-79
2023/08/16 06:54:23;;;;;;;0.65;0.40;;;16.20;70.00;;;;;;5054783;28;20117;-78
2023/08/16 06:56:52;;;;;;;0.50;0.30;;;16.20;70.10;;;;;;5054561;28;20418;-79
2023/08/16 06:59:19;;;;;;;0.70;0.43;;;16.20;70.20;;;;;;5054709;28;20025;-84
2023/08/16 07:01:46;;;;;;;0.60;0.60;;;16.10;70.40;;;;;;5052743;28;20131;-79
2023/08/16 07:04:14;;;;;;;1.55;0.60;;;16.10;70.70;;;;;;5050387;28;20064;-78
2023/08/16 07:06:41;;;;;;;1.67;0.60;;;16.00;70.80;;;;;;5052804;28;20526;-79
2023/08/16 07:09:09;;;;;;;1.23;0.43;;;16.00;71.10;;;;;;5052556;28;20380;-79
2023/08/16 07:11:36;;;;;;;1.80;0.60;;;16.00;71.30;;;;;;5052400;28;20025;-80
2023/08/16 07:14:04;;;;;;;0.82;0.70;;;15.90;71.40;;;;;;5052273;28;20112;-81
2023/08/16 07:16:32;;;;;;;0.40;0.40;;;15.90;71.80;;;;;;5052794;28;20091;-77
2023/08/16 07:18:59;;;;;;;0.35;0.30;;;15.90;71.90;;;;;;5054072;28;20106;-78
2023/08/16 07:21:27;;;;;;;1.27;0.45;;;15.90;72.00;;;;;;5054264;28;20025;-79
2023/08/16 07:23:54;;;;;;;1.45;0.50;;;15.80;72.20;;;;;;5053661;28;20021;-78
2023/08/16 07:26:22;;;;;;;0.50;0.50;;;15.80;72.30;;;;;;5054040;28;20025;-79
2023/08/16 07:28:49;;;;;;;1.25;0.60;;;15.70;72.50;;;;;;5054081;28;20103;-80
2023/08/16 07:31:17;;;;;;;1.05;0.60;;;15.70;72.70;;;;;;5053849;28;20028;-80
2023/08/16 07:33:44;;;;;;;1.08;0.50;;;15.70;72.50;;;;;;5053760;28;20048;-80
2023/08/16 07:36:11;;;;;;;1.80;0.47;;;15.70;72.70;;;;;;5053829;28;20029;-79
2023/08/16 07:38:39;;;;;;;0.95;0.60;;;15.70;72.80;;;;;;5053762;28;20032;-79
2023/08/16 07:41:07;;;;;;;1.33;0.50;;;15.70;72.90;;;;;;5053823;28;20103;-79
2023/08/16 07:43:34;;;;;;;2.15;0.50;;;15.60;73.10;;;;;;5053581;28;20029;-78
2023/08/16 07:46:02;;;;;;;0.68;0.52;;;15.60;73.20;;;;;;5053589;28;20033;-79
2023/08/16 07:48:29;;;;;;;1.02;0.50;;;15.60;73.10;;;;;;5053584;28;20108;-83
2023/08/16 07:50:56;;;;;;;0.82;0.40;;;15.60;73.20;;;;;;5053621;28;20032;-82
2023/08/16 07:53:24;;;;;;;0.60;0.50;;;15.60;73.20;;;;;;5053638;28;20025;-78
2023/08/16 07:55:52;;;;;;;3.30;0.60;;;15.50;73.30;;;;;;5053131;28;20434;-81
2023/08/16 07:58:19;;;;;;;1.15;0.40;;;15.50;73.20;;;;;;5053498;28;20075;-83
2023/08/16 08:00:47;;;;;;;0.85;0.40;;;15.50;73.50;;;;;;5053551;28;20582;-79
2023/08/16 08:03:16;;;;;;;4.65;0.60;;;15.50;73.50;;;;;;5053177;28;20520;-78
2023/08/16 08:05:44;;;;;;;0.95;0.40;;;15.50;73.40;;;;;;5053032;28;20029;-78
2023/08/16 08:08:12;;;;;;;1.00;0.50;;;15.40;73.50;;;;;;5053072;28;20029;-80
2023/08/16 08:10:45;;;;;;;1.48;0.90;;;15.40;73.60;;;;;;5053356;28;20116;-83
2023/08/16 08:13:14;;;;;;;2.65;0.90;;;15.40;73.50;;;;;;5053388;28;20029;-79
2023/08/16 08:15:41;;;;;;;2.38;0.63;;;15.40;73.50;;;;;;5052913;28;20043;-82
2023/08/16 08:18:08;;;;;;;1.70;0.80;;;15.40;73.40;;;;;;5034558;28;20045;-79
2023/08/16 08:20:37;;;;;;;1.27;0.65;;;15.30;73.50;;;;;;5031105;28;20036;-80
2023/08/16 08:23:04;;;;;;;1.27;0.70;;;15.30;73.80;;;;;;5032392;28;20032;-79
2023/08/16 08:25:32;;;;;;;3.03;1.50;;;15.30;73.90;;;;;;5032914;28;20380;-79
2023/08/16 08:27:59;;;;;;;2.17;1.88;;;15.20;74.00;;;;;;5032137;28;20037;-83
2023/08/16 08:30:27;;;;;;;1.83;1.23;;;15.20;74.20;;;;;;5033001;28;20100;-80
2023/08/16 08:32:57;;;;;;;3.67;1.55;;;15.20;74.30;;;;;;5032771;28;20025;-78
2023/08/16 08:35:24;;;;;;;4.05;1.20;;;15.20;74.40;;;;;;5032646;28;20039;-79
2023/08/16 08:37:52;;;;;;;2.55;1.35;;;15.20;74.50;;;;;;5032726;28;20032;-78
2023/08/16 08:40:20;;;;;;;1.13;0.82;;;15.20;74.50;;;;;;5032817;28;20025;-82
2023/08/16 08:42:49;;;;;;;2.97;1.10;;;15.20;74.50;;;;;;5033027;28;20035;-79
2023/08/16 08:45:17;;;;;;;3.55;1.20;;;15.20;74.60;;;;;;5032986;28;20013;-79
2023/08/16 08:47:48;;;;;;;1.90;1.17;;;15.20;74.70;;;;;;5031479;28;20021;-81
2023/08/16 08:50:16;;;;;;;2.45;1.25;;;15.20;74.40;;;;;;5032790;28;20028;-78
2023/08/16 08:52:50;;;;;;;4.07;1.20;;;15.10;74.40;;;;;;5032623;28;20506;-78
2023/08/16 08:55:18;;;;;;;2.40;1.25;;;15.10;74.60;;;;;;5032620;28;20503;-82
2023/08/16 08:57:50;;;;;;;5.10;1.33;;;15.10;74.60;;;;;;5032446;28;20401;-80
2023/08/16 09:00:20;;;;;;;1.90;1.00;;;15.00;74.60;;;;;;5032687;28;20473;-79
2023/08/16 09:02:50;;;;;;;2.97;1.17;;;15.00;74.60;;;;;;5032713;28;20030;-80
2023/08/16 09:05:21;;;;;;;4.25;1.80;;;15.00;74.70;;;;;;5032680;28;20030;-79
2023/08/16 09:07:49;;;;;;;9.80;3.97;;;15.00;74.80;;;;;;5032180;28;20025;-80
2023/08/16 09:10:18;;;;;;;4.63;1.85;;;15.00;75.10;;;;;;5032754;28;20021;-80
2023/08/16 09:12:46;;;;;;;3.47;1.33;;;15.00;74.70;;;;;;5032863;28;20033;-82
2023/08/16 09:15:13;;;;;;;3.53;1.52;;;15.00;74.50;;;;;;5032538;28;20025;-79
2023/08/16 09:17:40;;;;;;;3.80;1.17;;;15.00;74.50;;;;;;5032189;28;20033;-79
2023/08/16 09:20:08;;;;;;;2.85;1.50;;;15.10;74.40;;;;;;5047730;28;20447;-81
2023/08/16 09:22:37;;;;;;;2.78;1.50;;;15.00;74.30;;;;;;5032279;28;20033;-79
2023/08/16 09:25:10;;;;;;;3.53;1.67;;;15.00;74.40;;;;;;5032420;28;20021;-80
2023/08/16 09:27:40;;;;;;;4.38;1.60;;;15.00;74.60;;;;;;5032183;28;20026;-83
2023/08/16 09:30:11;;;;;;;4.43;1.40;;;15.00;74.60;;;;;;5032488;28;20075;-79
2023/08/16 09:32:39;;;;;;;1.95;1.30;;;15.00;74.70;;;;;;5032435;28;20025;-79
2023/08/16 09:35:07;;;;;;;3.70;1.20;;;15.00;74.80;;;;;;5032147;28;20026;-79
2023/08/16 09:37:34;;;;;;;4.68;1.77;;;14.90;74.90;;;;;;5030910;28;20025;-79
2023/08/16 09:40:04;;;;;;;2.05;1.33;;;14.90;74.80;;;;;;5034991;28;20017;-79
2023/08/16 09:42:35;;;;;;;2.58;1.40;;;14.90;74.90;;;;;;5036142;28;20029;-79
2023/08/16 09:45:03;;;;;;;1.60;1.10;;;14.90;74.80;;;;;;5051349;28;20041;-80
2023/08/16 09:47:31;;;;;;;2.80;1.60;;;14.90;74.90;;;;;;5036468;28;20029;-80
2023/08/16 09:49:59;;;;;;;3.88;1.45;;;15.00;74.90;;;;;;5053501;28;20036;-83
2023/08/16 09:52:29;;;;;;;2.60;1.52;;;14.90;74.70;;;;;;5054560;28;20017;-81
2023/08/16 09:54:57;;;;;;;4.85;1.90;;;15.00;74.60;;;;;;5055772;28;20083;-82
2023/08/16 09:57:24;;;;;;;2.95;1.50;;;15.00;74.80;;;;;;5055798;28;20108;-79
2023/08/16 09:59:52;;;;;;;3.08;1.85;;;14.90;74.70;;;;;;5055445;28;20040;-78
2023/08/16 10:02:21;;;;;;;1.92;1.25;;;14.90;74.80;;;;;;5055675;28;20463;-82
2023/08/16 10:04:51;;;;;;;5.88;2.03;;;14.90;75.00;;;;;;5055617;28;20025;-80
2023/08/16 10:07:19;;;;;;;6.97;2.83;;;14.80;75.00;;;;;;5055552;28;20025;-79
2023/08/16 10:09:47;;;;;;;6.88;2.20;;;14.90;75.20;;;;;;5055314;28;20025;-80
2023/08/16 10:12:15;;;;;;;5.38;2.20;;;14.90;74.90;;;;;;5055497;28;20021;-79
2023/08/16 10:14:42;;;;;;;4.50;2.40;;;14.90;74.80;;;;;;5055303;28;20028;-80
2023/08/16 10:17:11;;;;;;;4.47;2.60;;;14.90;75.00;;;;;;5055430;28;20361;-79
2023/08/16 10:19:43;;;;;;;5.25;2.30;;;14.90;74.90;;;;;;5055102;28;20407;-81
2023/08/16 10:22:27;;;;;;;5.25;2.28;;;14.90;75.00;;;;;;5055637;28;20049;-79
2023/08/16 10:24:56;;;;;;;4.13;2.53;;;14.90;75.00;;;;;;5053864;28;20421;-78
2023/08/16 10:27:25;;;;;;;4.80;2.30;;;14.90;75.20;;;;;;5055373;28;20093;-82
2023/08/16 10:30:00;;;;;;;3.38;2.03;;;14.90;75.30;;;;;;5055030;28;20028;-80
2023/08/16 10:32:27;;;;;;;4.75;1.80;;;14.90;75.70;;;;;;5053971;28;20412;-79
2023/08/16 10:34:58;;;;;;;2.25;1.73;;;14.80;75.40;;;;;;5055003;28;20025;-83
2023/08/16 10:37:26;;;;;;;4.00;1.80;;;14.90;75.60;;;;;;5054899;28;20541;-80
2023/08/16 10:39:53;;;;;;;4.45;1.77;;;14.80;75.70;;;;;;5054746;28;20047;-81
2023/08/16 10:42:26;;;;;;;4.25;2.05;;;14.80;75.90;;;;;;5053629;28;20029;-79
2023/08/16 10:44:54;;;;;;;7.00;2.10;;;14.70;76.00;;;;;;5054874;28;20104;-80
2023/08/16 10:47:31;;;;;;;3.33;1.55;;;14.70;76.10;;;;;;5054966;28;20033;-82
2023/08/16 10:50:00;;;;;;;3.58;1.70;;;14.80;76.10;;;;;;5054217;28;20021;-82
2023/08/16 10:52:32;;;;;;;4.47;1.65;;;14.80;76.30;;;;;;5054121;28;20029;-80
2023/08/16 10:55:03;;;;;;;2.20;1.30;;;14.70;76.30;;;;;;5054643;28;20039;-79
2023/08/16 10:57:30;;;;;;;3.10;1.60;;;14.80;76.20;;;;;;5054636;28;20056;-79
2023/08/16 11:00:09;;;;;;;2.50;1.30;;;14.80;76.10;;;;;;5054723;28;20025;-79
2023/08/16 11:02:42;;;;;;;2.72;1.60;;;14.70;76.10;;;;;;5054516;28;20029;-83
2023/08/16 11:05:19;;;;;;;2.35;1.30;;;14.80;76.30;;;;;;5054415;28;20495;-79
2023/08/16 11:07:58;;;;;;;2.22;1.10;;;14.70;76.40;;;;;;5054194;28;20028;-84
2023/08/16 11:10:37;;;;;;;3.38;1.38;;;14.70;76.30;;;;;;5054687;28;20017;-83
2023/08/16 11:13:11;;;;;;;3.65;1.30;;;14.70;76.30;;;;;;5053190;28;20029;-82
2023/08/16 11:15:42;;;;;;;3.20;1.30;;;14.70;76.30;;;;;;5054243;28;20035;-83
2023/08/16 11:18:09;;;;;;;3.00;1.23;;;14.70;76.40;;;;;;5054226;28;20037;-82
2023/08/16 11:20:37;;;;;;;3.70;1.20;;;14.60;76.60;;;;;;5054609;28;20106;-84
2023/08/16 11:23:05;;;;;;;3.47;1.20;;;14.60;76.60;;;;;;5054496;28;20017;-83
2023/08/16 11:25:33;;;;;;;2.97;1.30;;;14.70;76.40;;;;;;5054327;28;20028;-84
2023/08/16 11:28:03;;;;;;;1.63;0.90;;;14.70;76.60;;;;;;5054261;28;20025;-83
2023/08/16 11:30:31;;;;;;;2.67;1.02;;;14.70;76.40;;;;;;5054087;28;20092;-82
2023/08/16 11:33:01;;;;;;;2.05;0.82;;;14.70;76.20;;;;;;5054110;28;20021;-84
2023/08/16 11:35:29;;;;;;;2.90;1.15;;;14.70;76.40;;;;;;5053892;28;20040;-83
2023/08/16 11:37:57;;;;;;;2.13;0.90;;;14.70;76.40;;;;;;5053712;28;20021;-83
2023/08/16 11:40:25;;;;;;;3.53;0.93;;;14.70;76.50;;;;;;5054161;28;20490;-81
2023/08/16 11:42:53;;;;;;;2.58;0.80;;;14.70;76.70;;;;;;5053858;28;20039;-80
2023/08/16 11:45:25;;;;;;;3.38;0.90;;;14.70;76.40;;;;;;5053513;28;20368;-82
2023/08/16 11:47:53;;;;;;;3.22;1.30;;;14.70;76.60;;;;;;5053425;28;20017;-82
2023/08/16 11:50:25;;;;;;;3.05;0.90;;;14.70;76.90;;;;;;5053632;28;20060;-83
2023/08/16 11:53:02;;;;;;;1.40;0.65;;;14.60;77.10;;;;;;5053438;28;20032;-82
2023/08/16 11:55:30;;;;;;;2.53;0.90;;;14.70;77.40;;;;;;5053747;28;20104;-82
2023/08/16 11:58:13;;;;;;;1.17;0.90;;;14.70;77.60;;;;;;5053676;28;20040;-83
2023/08/16 12:00:42;;;;;;;2.85;1.17;;;14.70;77.30;;;;;;5052231;28;20372;-83
2023/08/16 12:03:11;;;;;;;2.80;1.48;;;14.60;77.40;;;;;;5053262;28;20108;-83
2023/08/16 12:05:40;;;;;;;1.77;1.27;;;14.50;77.50;;;;;;5053343;28;20024;-83
2023/08/16 12:08:11;;;;;;;2.28;1.23;;;14.50;77.60;;;;;;5053040;28;20383;-84
2023/08/16 12:10:40;;;;;;;3.17;1.40;;;14.40;77.80;;;;;;5053321;28;20024;-83
2023/08/16 12:13:14;;;;;;;3.63;1.65;;;14.30;77.90;;;;;;5052098;28;20375;-82
2023/08/16 12:15:42;;;;;;;3.75;1.77;;;14.20;78.00;;;;;;5052953;28;20847;-83
2023/08/16 12:18:10;;;;;;;3.75;2.10;;;14.20;78.20;;;;;;5053073;28;20379;-82
2023/08/16 12:20:38;;;;;;;2.42;1.70;;;14.20;78.20;;;;;;5053058;28;20103;-83
2023/08/16 12:23:05;;;;;;;6.32;2.30;;;14.10;78.30;;;;;;5053267;28;20021;-85
2023/08/16 12:25:33;;;;;;;3.72;1.90;;;14.00;78.30;;;;;;5052919;28;20017;-82
2023/08/16 12:28:02;;;;;;;6.38;2.03;;;14.00;78.40;;;;;;5052998;28;20483;-83
2023/08/16 12:30:30;;;;;;;2.63;1.85;;;13.90;78.50;;;;;;5066997;28;20033;-84
2023/08/16 12:32:57;;;;;;;4.80;2.20;;;13.80;78.80;;;;;;5053032;28;20043;-84
2023/08/16 12:35:25;;;;;;;3.33;1.70;;;13.80;78.90;;;;;;5052911;28;20029;-83
2023/08/16 12:37:53;;;;;;;4.18;2.17;;;13.70;79.00;;;;;;5052822;28;20035;-82
2023/08/16 12:40:20;;;;;;;6.10;2.40;;;13.70;79.60;;;;;;5052901;28;20025;-83
2023/08/16 12:42:47;;;;;;;5.55;2.10;;;13.70;79.60;;;;;;5053145;28;20025;-83
2023/08/16 12:45:15;;;;;;;4.45;2.25;;;13.70;79.70;;;;;;5053051;28;20025;-83
2023/08/16 12:47:42;;;;;;;4.28;2.55;;;13.70;79.50;;;;;;5052619;28;20057;-84
2023/08/16 12:50:10;;;;;;;12.52;3.42;;;13.60;79.70;;;;;;5051890;28;20661;-84
2023/08/16 12:52:37;;;;;;;4.95;2.50;;;13.50;79.60;;;;;;5052555;28;20068;-84
2023/08/16 12:55:04;;;;;;;4.95;2.60;;;13.50;79.70;;;;;;5051218;28;20036;-84